createdAt,value
2022-09-23T00:01:11.650Z,3.17
2022-09-23T00:03:41.982Z,3.20
2022-09-23T00:06:13.525Z,3.97
2022-09-23T00:08:41.306Z,3.47
2022-09-23T00:11:16.423Z,3.57
2022-09-23T00:13:45.363Z,3.27
2022-09-23T00:16:15.815Z,2.77
2022-09-23T00:18:43.127Z,3.00
2022-09-23T00:21:13.621Z,3.30
2022-09-23T00:23:41.711Z,3.13
2022-09-23T00:26:12.158Z,3.73
2022-09-23T00:28:39.075Z,3.30
2022-09-23T00:31:08.315Z,3.03
2022-09-23T00:33:35.315Z,3.53
2022-09-23T00:36:04.003Z,3.53
2022-09-23T00:38:30.896Z,2.80
2022-09-23T00:40:58.499Z,3.37
2022-09-23T00:43:41.943Z,3.70
2022-09-23T00:46:11.788Z,3.87
2022-09-23T00:48:41.068Z,3.67
2022-09-23T00:51:10.755Z,2.57
2022-09-23T00:53:38.474Z,2.63
2022-09-23T00:56:07.611Z,3.27
2022-09-23T00:58:37.229Z,2.47
2022-09-23T01:01:04.484Z,2.60
2022-09-23T01:03:31.960Z,2.73
2022-09-23T01:05:59.073Z,2.20
2022-09-23T01:08:27.206Z,2.20
2022-09-23T01:11:18.927Z,2.43
2022-09-23T01:14:00.709Z,2.27
2022-09-23T01:16:43.765Z,2.80
2022-09-23T01:19:35.832Z,2.73
2022-09-23T01:22:02.386Z,2.70
2022-09-23T01:24:35.412Z,2.80
2022-09-23T01:27:40.109Z,2.80
2022-09-23T01:30:36.200Z,2.80
2022-09-23T01:33:30.257Z,3.30
2022-09-23T01:36:25.764Z,3.40
2022-09-23T01:39:05.269Z,3.30
2022-09-23T01:41:53.543Z,2.97
2022-09-23T01:44:29.526Z,3.37
2022-09-23T01:47:06.790Z,3.10
2022-09-23T01:49:57.931Z,3.20
2022-09-23T01:52:35.441Z,3.10
2022-09-23T01:55:14.294Z,3.20
2022-09-23T01:57:47.109Z,3.97
2022-09-23T02:00:18.530Z,3.33
2022-09-23T02:02:51.644Z,3.93
2022-09-23T02:05:30.943Z,2.70
2022-09-23T02:08:03.310Z,2.70
2022-09-23T02:10:49.386Z,3.20
2022-09-23T02:13:30.041Z,3.33
2022-09-23T02:16:02.174Z,2.93
2022-09-23T02:18:34.255Z,3.20
2022-09-23T02:21:06.543Z,3.03
2022-09-23T02:23:36.879Z,3.23
2022-09-23T02:26:12.061Z,3.00
2022-09-23T02:29:08.345Z,2.93
2022-09-23T02:32:00.291Z,3.00
2022-09-23T02:34:32.585Z,2.87
2022-09-23T02:37:14.115Z,3.00
2022-09-23T02:40:05.684Z,2.90
2022-09-23T02:42:47.706Z,2.73
2022-09-23T02:45:14.678Z,2.97
2022-09-23T02:47:44.274Z,2.43
2022-09-23T02:50:10.975Z,2.30
2022-09-23T02:52:38.774Z,2.67
2022-09-23T02:55:09.096Z,2.50
2022-09-23T02:57:35.837Z,2.00
2022-09-23T03:00:02.621Z,2.60
2022-09-23T03:03:02.557Z,2.50
2022-09-23T03:05:34.745Z,2.20
2022-09-23T03:08:33.769Z,2.20
2022-09-23T03:11:06.958Z,2.73
2022-09-23T03:13:43.181Z,2.83
2022-09-23T03:16:21.022Z,2.50
2022-09-23T03:19:21.151Z,2.60
2022-09-23T03:22:08.550Z,2.60
2022-09-23T03:24:37.968Z,2.63
2022-09-23T03:27:13.791Z,2.43
2022-09-23T03:29:50.209Z,2.57
2022-09-23T03:32:20.811Z,2.33
2022-09-23T03:34:51.524Z,2.43
2022-09-23T03:37:25.274Z,2.80
2022-09-23T03:39:57.199Z,2.53
2022-09-23T03:42:27.233Z,2.47
2022-09-23T03:44:56.914Z,2.37
2022-09-23T03:47:26.843Z,2.73
2022-09-23T03:49:54.278Z,2.73
2022-09-23T03:52:23.718Z,2.33
2022-09-23T03:54:52.226Z,2.93
2022-09-23T03:57:22.137Z,1.90
2022-09-23T03:59:50.618Z,2.47
2022-09-23T04:02:19.005Z,2.10
2022-09-23T04:04:46.028Z,2.37
2022-09-23T04:07:13.686Z,2.27
2022-09-23T04:09:40.435Z,2.57
2022-09-23T04:12:08.088Z,2.67
2022-09-23T04:14:35.097Z,2.70
2022-09-23T04:17:01.733Z,2.87
2022-09-23T04:19:28.384Z,3.53
2022-09-23T04:21:54.983Z,3.37
2022-09-23T04:24:22.145Z,3.13
2022-09-23T04:26:53.486Z,4.10
2022-09-23T04:29:20.596Z,3.23
2022-09-23T04:31:47.746Z,3.30
2022-09-23T04:34:17.409Z,3.87
2022-09-23T04:36:48.198Z,4.57
2022-09-23T04:39:16.273Z,3.50
2022-09-23T04:41:44.300Z,3.63
2022-09-23T04:44:12.876Z,3.53
2022-09-23T04:46:46.835Z,3.93
2022-09-23T04:49:14.879Z,3.97
2022-09-23T04:51:43.569Z,3.77
2022-09-23T04:54:12.436Z,4.57
2022-09-23T04:56:39.992Z,3.87
2022-09-23T04:59:07.579Z,4.37
2022-09-23T05:01:36.368Z,4.23
2022-09-23T05:04:06.357Z,4.47
2022-09-23T05:06:37.307Z,4.67
2022-09-23T05:09:08.552Z,4.33
2022-09-23T05:11:35.592Z,4.37
2022-09-23T05:14:02.657Z,4.20
2022-09-23T05:16:29.821Z,4.57
2022-09-23T05:18:57.593Z,5.43
2022-09-23T05:21:26.974Z,5.77
2022-09-23T05:23:55.506Z,4.43
2022-09-23T05:26:25.440Z,5.00
2022-09-23T05:28:53.021Z,4.37
2022-09-23T05:31:22.161Z,3.87
2022-09-23T05:33:52.067Z,4.47
2022-09-23T05:36:20.670Z,4.67
2022-09-23T05:38:49.299Z,4.70
2022-09-23T05:41:17.299Z,4.07
2022-09-23T05:43:44.043Z,4.10
2022-09-23T05:46:13.541Z,4.50
2022-09-23T05:48:41.861Z,3.77
2022-09-23T05:51:13.039Z,4.27
2022-09-23T05:53:46.202Z,4.20
2022-09-23T05:56:14.102Z,3.80
2022-09-23T05:58:41.196Z,3.63
2022-09-23T06:01:21.216Z,3.97
2022-09-23T06:03:52.699Z,3.57
2022-09-23T06:06:21.677Z,3.90
2022-09-23T06:08:48.879Z,3.83
2022-09-23T06:11:15.575Z,2.90
2022-09-23T06:13:42.247Z,3.63
2022-09-23T06:16:12.336Z,3.53
2022-09-23T06:18:40.753Z,3.60
2022-09-23T06:21:08.088Z,2.87
2022-09-23T06:23:37.716Z,3.10
2022-09-23T06:26:09.759Z,3.13
2022-09-23T06:28:40.379Z,3.10
2022-09-23T06:31:14.053Z,3.40
2022-09-23T06:33:42.663Z,3.57
2022-09-23T06:36:09.781Z,2.93
2022-09-23T06:38:44.685Z,2.90
2022-09-23T06:41:12.425Z,3.40
2022-09-23T06:43:39.230Z,3.60
2022-09-23T06:46:07.464Z,3.23
2022-09-23T06:48:37.695Z,3.20
2022-09-23T06:51:07.348Z,3.30
2022-09-23T06:53:34.692Z,2.97
2022-09-23T06:56:11.380Z,4.07
2022-09-23T06:58:40.076Z,3.30
2022-09-23T07:01:19.833Z,2.90
2022-09-23T07:03:50.176Z,3.20
2022-09-23T07:06:17.268Z,2.97
2022-09-23T07:08:47.217Z,2.87
2022-09-23T07:11:15.262Z,2.60
2022-09-23T07:13:42.349Z,3.00
2022-09-23T07:16:10.160Z,2.70
2022-09-23T07:18:37.620Z,2.87
2022-09-23T07:21:07.230Z,3.23
2022-09-23T07:23:33.980Z,2.90
2022-09-23T07:26:01.269Z,3.37
2022-09-23T07:28:29.148Z,3.27
2022-09-23T07:31:00.310Z,3.30
2022-09-23T07:33:33.103Z,3.17
2022-09-23T07:36:19.949Z,3.10
2022-09-23T07:38:47.438Z,3.00
2022-09-23T07:41:18.194Z,2.57
2022-09-23T07:43:46.128Z,3.43
2022-09-23T07:46:16.918Z,2.70
2022-09-23T07:48:45.750Z,2.80
2022-09-23T07:51:21.168Z,3.13
2022-09-23T07:53:49.259Z,2.97
2022-09-23T07:56:16.426Z,3.30
2022-09-23T07:58:43.252Z,2.70
2022-09-23T08:01:12.057Z,3.10
2022-09-23T08:03:39.634Z,2.80
2022-09-23T08:06:12.570Z,2.90
2022-09-23T08:08:43.589Z,2.73
2022-09-23T08:11:13.379Z,3.10
2022-09-23T08:13:40.634Z,2.87
2022-09-23T08:16:07.529Z,2.37
2022-09-23T08:18:34.579Z,3.00
2022-09-23T08:21:01.458Z,2.50
2022-09-23T08:23:33.489Z,2.77
2022-09-23T08:26:02.953Z,2.60
2022-09-23T08:28:30.335Z,2.80
2022-09-23T08:30:57.077Z,2.50
2022-09-23T08:33:24.490Z,2.63
2022-09-23T08:35:52.449Z,2.63
2022-09-23T08:38:20.649Z,2.57
2022-09-23T08:40:49.556Z,2.23
2022-09-23T08:43:32.937Z,2.63
2022-09-23T08:46:06.101Z,2.37
2022-09-23T08:48:37.459Z,2.67
2022-09-23T08:51:12.909Z,2.60
2022-09-23T08:53:41.896Z,2.97
2022-09-23T08:56:17.444Z,2.60
2022-09-23T08:59:02.182Z,2.07
2022-09-23T09:01:45.667Z,2.00
2022-09-23T09:04:35.361Z,2.00
2022-09-23T09:07:35.751Z,2.43
2022-09-23T09:10:06.607Z,2.47
2022-09-23T09:12:47.547Z,2.53
2022-09-23T09:15:18.832Z,2.20
2022-09-23T09:18:07.745Z,1.80
2022-09-23T09:20:42.294Z,2.20
2022-09-23T09:23:22.100Z,2.23
2022-09-23T09:25:52.742Z,2.20
2022-09-23T09:28:30.942Z,2.47
2022-09-23T09:31:02.244Z,2.13
2022-09-23T09:33:38.309Z,2.13
2022-09-23T09:36:20.044Z,2.13
2022-09-23T09:38:46.903Z,2.37
2022-09-23T09:41:18.136Z,1.80
2022-09-23T09:43:56.407Z,2.27
2022-09-23T09:46:23.093Z,2.10
2022-09-23T09:49:11.867Z,1.83
2022-09-23T09:51:41.490Z,2.10
2022-09-23T09:54:24.699Z,1.93
2022-09-23T09:56:52.633Z,1.80
2022-09-23T09:59:25.579Z,2.27
2022-09-23T10:02:27.062Z,1.60
2022-09-23T10:05:02.341Z,1.60
2022-09-23T10:07:34.148Z,2.60
2022-09-23T10:10:32.807Z,2.10
2022-09-23T10:13:15.405Z,1.97
2022-09-23T10:15:45.369Z,1.67
2022-09-23T10:18:30.790Z,1.70
2022-09-23T10:21:13.354Z,1.40
2022-09-23T10:23:43.763Z,1.50
2022-09-23T10:26:12.326Z,1.77
2022-09-23T10:28:46.316Z,1.60
2022-09-23T10:31:27.477Z,1.87
2022-09-23T10:34:00.463Z,1.80
2022-09-23T10:36:32.316Z,1.60
2022-09-23T10:39:21.496Z,1.90
2022-09-23T10:42:13.593Z,1.70
2022-09-23T10:45:18.413Z,1.83
2022-09-23T10:48:27.199Z,2.03
2022-09-23T10:50:55.618Z,1.70
2022-09-23T10:53:57.983Z,1.63
2022-09-23T10:56:24.491Z,1.83
2022-09-23T10:59:14.359Z,1.60
2022-09-23T11:01:59.161Z,1.70
2022-09-23T11:04:40.739Z,1.50
2022-09-23T11:07:22.967Z,1.40
2022-09-23T11:10:44.571Z,2.10
2022-09-23T11:13:34.294Z,1.97
2022-09-23T11:16:06.898Z,1.83
2022-09-23T11:19:02.131Z,1.83
2022-09-23T11:21:37.405Z,1.83
2022-09-23T11:24:28.989Z,1.70
2022-09-23T11:26:58.418Z,1.90
2022-09-23T11:30:01.601Z,1.40
2022-09-23T11:32:48.081Z,1.30
2022-09-23T11:35:21.268Z,2.17
2022-09-23T11:38:25.357Z,1.57
2022-09-23T11:41:14.671Z,1.40
2022-09-23T11:43:46.928Z,1.67
2022-09-23T11:46:22.916Z,1.40
2022-09-23T11:49:00.644Z,1.40
2022-09-23T11:51:42.574Z,1.30
2022-09-23T11:54:20.405Z,1.10
2022-09-23T11:56:53.369Z,1.10
2022-09-23T11:59:40.858Z,1.20
2022-09-23T12:02:22.360Z,1.20
2022-09-23T12:05:06.776Z,1.20
2022-09-23T12:07:40.724Z,1.00
2022-09-23T12:10:09.129Z,0.97
2022-09-23T12:12:41.747Z,1.03
2022-09-23T12:15:17.333Z,1.20
2022-09-23T12:18:11.721Z,1.07
2022-09-23T12:20:48.331Z,1.13
2022-09-23T12:23:48.765Z,1.20
2022-09-23T12:26:20.821Z,1.20
2022-09-23T12:28:50.755Z,1.07
2022-09-23T12:31:20.648Z,1.07
2022-09-23T12:33:54.450Z,1.00
2022-09-23T12:36:35.638Z,1.13
2022-09-23T12:39:02.137Z,0.90
2022-09-23T12:41:35.410Z,0.90
2022-09-23T12:44:08.302Z,0.93
2022-09-23T12:46:34.922Z,1.13
2022-09-23T12:49:03.666Z,1.53
2022-09-23T12:51:36.905Z,1.43
2022-09-23T12:54:03.483Z,1.30
2022-09-23T12:56:33.050Z,1.47
2022-09-23T12:59:18.114Z,1.60
2022-09-23T13:01:44.862Z,1.60
2022-09-23T13:04:53.493Z,1.80
2022-09-23T13:07:26.452Z,1.80
2022-09-23T13:10:02.127Z,1.60
2022-09-23T13:12:33.012Z,1.30
2022-09-23T13:15:03.640Z,1.67
2022-09-23T13:17:37.899Z,2.00
2022-09-23T13:20:26.063Z,1.80
2022-09-23T13:22:52.864Z,1.30
2022-09-23T13:25:25.714Z,1.37
2022-09-23T13:27:55.854Z,1.70
2022-09-23T13:30:26.660Z,1.70
2022-09-23T13:33:10.591Z,1.60
2022-09-23T13:35:56.183Z,1.63
2022-09-23T13:38:29.734Z,1.40
2022-09-23T13:41:03.579Z,1.50
2022-09-23T13:43:40.289Z,1.70
2022-09-23T13:46:19.020Z,1.80
2022-09-23T13:48:47.692Z,1.30
2022-09-23T13:51:37.942Z,1.57
2022-09-23T13:54:05.233Z,1.60
2022-09-23T13:56:33.700Z,1.70
2022-09-23T13:59:18.223Z,1.70
2022-09-23T14:01:47.127Z,1.63
2022-09-23T14:04:26.622Z,1.40
2022-09-23T14:06:54.601Z,1.73
2022-09-23T14:09:29.314Z,1.53
2022-09-23T14:11:59.699Z,1.47
2022-09-23T14:14:27.922Z,1.50
2022-09-23T14:16:56.191Z,1.60
2022-09-23T14:19:25.359Z,1.60
2022-09-23T14:21:56.009Z,1.37
2022-09-23T14:24:45.995Z,1.70
2022-09-23T14:27:17.811Z,1.87
2022-09-23T14:29:46.907Z,2.40
2022-09-23T14:32:13.690Z,1.73
2022-09-23T14:34:58.659Z,1.73
2022-09-23T14:37:48.864Z,2.00
2022-09-23T14:40:20.552Z,1.60
2022-09-23T14:42:56.551Z,1.67
2022-09-23T14:45:26.522Z,1.53
2022-09-23T14:47:59.025Z,1.67
2022-09-23T14:50:37.951Z,1.70
2022-09-23T14:53:25.708Z,1.60
2022-09-23T14:56:07.179Z,1.83
2022-09-23T14:58:51.666Z,1.50
2022-09-23T15:01:39.438Z,1.30
2022-09-23T15:04:17.996Z,1.37
2022-09-23T15:07:06.394Z,1.60
2022-09-23T15:09:37.798Z,1.43
2022-09-23T15:12:13.461Z,1.60
2022-09-23T15:14:43.113Z,1.40
2022-09-23T15:17:24.600Z,1.20
2022-09-23T15:19:56.789Z,1.67
2022-09-23T15:22:25.386Z,1.73
2022-09-23T15:24:54.200Z,1.50
2022-09-23T15:27:34.558Z,1.80
2022-09-23T15:30:19.359Z,1.67
2022-09-23T15:32:46.805Z,1.87
2022-09-23T15:35:20.016Z,1.87
2022-09-23T15:37:49.036Z,2.10
2022-09-23T15:40:33.165Z,2.20
2022-09-23T15:43:07.099Z,1.80
2022-09-23T15:45:42.929Z,1.80
2022-09-23T15:48:16.034Z,2.10
2022-09-23T15:50:45.572Z,2.20
2022-09-23T15:53:18.040Z,2.30
2022-09-23T15:55:45.456Z,2.03
2022-09-23T15:58:12.161Z,1.63
2022-09-23T16:00:38.926Z,2.07
2022-09-23T16:03:06.646Z,1.87
2022-09-23T16:05:39.384Z,2.03
2022-09-23T16:08:09.557Z,2.07
2022-09-23T16:10:37.483Z,2.20
2022-09-23T16:13:06.360Z,2.00
2022-09-23T16:15:33.641Z,1.97
2022-09-23T16:18:01.584Z,1.80
2022-09-23T16:20:30.245Z,2.13
2022-09-23T16:22:58.345Z,2.40
2022-09-23T16:25:28.134Z,2.50
2022-09-23T16:27:56.618Z,3.83
2022-09-23T16:30:27.187Z,3.60
2022-09-23T16:32:54.211Z,3.43
2022-09-23T16:35:22.913Z,3.90
2022-09-23T16:37:50.848Z,3.20
2022-09-23T16:40:20.742Z,3.80
2022-09-23T16:42:48.480Z,3.30
2022-09-23T16:45:18.051Z,3.17
2022-09-23T16:47:46.483Z,2.60
2022-09-23T16:50:15.005Z,2.57
2022-09-23T16:52:42.006Z,2.70
2022-09-23T16:55:10.404Z,2.10
2022-09-23T16:57:38.141Z,2.30
2022-09-23T17:00:50.956Z,2.23
2022-09-23T17:03:36.272Z,2.00
2022-09-23T17:06:07.947Z,1.83
2022-09-23T17:08:35.024Z,1.83
2022-09-23T17:11:01.644Z,1.80
2022-09-23T17:13:29.776Z,2.60
2022-09-23T17:15:56.653Z,2.33
2022-09-23T17:18:23.507Z,3.23
2022-09-23T17:21:04.878Z,2.70
2022-09-23T17:23:33.479Z,3.00
2022-09-23T17:26:00.173Z,3.10
2022-09-23T17:28:27.041Z,2.47
2022-09-23T17:31:02.716Z,2.40
2022-09-23T17:33:31.722Z,2.00
2022-09-23T17:36:00.094Z,2.50
2022-09-23T17:38:29.415Z,2.30
2022-09-23T17:40:59.147Z,2.40
2022-09-23T17:43:26.124Z,2.80
2022-09-23T17:45:54.607Z,2.53
2022-09-23T17:48:22.767Z,2.37
2022-09-23T17:51:02.160Z,2.23
2022-09-23T17:53:33.941Z,2.37
2022-09-23T17:56:07.569Z,2.80
2022-09-23T17:58:36.670Z,2.33
2022-09-23T18:01:04.262Z,2.53
2022-09-23T18:03:32.111Z,2.13
2022-09-23T18:06:17.012Z,2.67
2022-09-23T18:08:45.992Z,3.00
2022-09-23T18:11:23.726Z,2.80
2022-09-23T18:13:54.461Z,2.60
2022-09-23T18:16:23.786Z,2.50
2022-09-23T18:18:55.028Z,2.77
2022-09-23T18:21:23.441Z,2.67
2022-09-23T18:23:50.621Z,3.17
2022-09-23T18:26:21.365Z,2.50
2022-09-23T18:28:48.900Z,2.80
2022-09-23T18:31:17.218Z,3.50
2022-09-23T18:33:49.420Z,2.67
2022-09-23T18:36:16.034Z,3.10
2022-09-23T18:38:42.636Z,2.80
2022-09-23T18:41:09.418Z,3.13
2022-09-23T18:43:41.307Z,2.93
2022-09-23T18:46:20.352Z,2.90
2022-09-23T18:49:06.672Z,2.30
2022-09-23T18:51:36.503Z,12.27
2022-09-23T18:54:05.734Z,4.77
2022-09-23T18:56:39.804Z,3.50
2022-09-23T18:59:08.591Z,2.53
2022-09-23T19:01:35.520Z,3.13
2022-09-23T19:04:02.902Z,2.77
2022-09-23T19:06:32.343Z,2.63
2022-09-23T19:08:59.060Z,2.17
2022-09-23T19:11:25.786Z,2.10
2022-09-23T19:13:58.004Z,3.37
2022-09-23T19:16:25.899Z,2.40
2022-09-23T19:18:53.120Z,2.10
2022-09-23T19:21:22.122Z,2.53
2022-09-23T19:23:51.244Z,2.40
2022-09-23T19:26:20.811Z,2.80
2022-09-23T19:28:50.044Z,3.33
2022-09-23T19:31:20.405Z,2.67
2022-09-23T19:33:59.247Z,2.00
2022-09-23T19:36:26.099Z,2.57
2022-09-23T19:38:54.408Z,2.40
2022-09-23T19:41:20.953Z,2.37
2022-09-23T19:43:48.756Z,2.50
2022-09-23T19:46:15.968Z,2.60
2022-09-23T19:48:42.930Z,2.77
2022-09-23T19:51:09.600Z,2.10
2022-09-23T19:53:36.458Z,2.20
2022-09-23T19:56:05.024Z,2.17
2022-09-23T19:58:33.136Z,2.60
2022-09-23T20:00:59.786Z,1.97
2022-09-23T20:03:27.110Z,2.57
2022-09-23T20:05:57.426Z,2.00
2022-09-23T20:08:24.738Z,2.40
2022-09-23T20:10:51.356Z,1.90
2022-09-23T20:13:18.078Z,2.03
2022-09-23T20:15:46.527Z,2.33
2022-09-23T20:18:13.187Z,2.17
2022-09-23T20:20:39.984Z,2.80
2022-09-23T20:23:06.680Z,2.30
2022-09-23T20:25:53.193Z,1.63
2022-09-23T20:28:22.404Z,2.40
2022-09-23T20:30:49.012Z,1.80
2022-09-23T20:33:15.691Z,1.97
2022-09-23T20:35:44.040Z,1.93
2022-09-23T20:38:10.908Z,2.10
2022-09-23T20:40:38.553Z,2.60
2022-09-23T20:43:05.301Z,2.07
2022-09-23T20:45:32.064Z,2.10
2022-09-23T20:48:03.342Z,2.50
2022-09-23T20:50:30.271Z,1.87
2022-09-23T20:52:57.673Z,2.00
2022-09-23T20:55:24.262Z,1.80
2022-09-23T20:57:51.596Z,1.90
2022-09-23T21:00:18.521Z,2.50
2022-09-23T21:02:45.081Z,2.20
2022-09-23T21:05:11.671Z,1.97
2022-09-23T21:07:38.655Z,1.97
2022-09-23T21:10:07.344Z,2.37
2022-09-23T21:12:35.236Z,1.90
2022-09-23T21:15:02.335Z,2.37
2022-09-23T21:17:28.956Z,2.17
2022-09-23T21:19:55.725Z,2.20
2022-09-23T21:22:22.706Z,2.70
2022-09-23T21:25:31.561Z,2.60
2022-09-23T21:27:37.243Z,2.30
2022-09-23T21:30:04.845Z,2.10
2022-09-23T21:32:31.421Z,2.20
2022-09-23T21:34:58.007Z,2.03
2022-09-23T21:37:25.467Z,1.67
2022-09-23T21:40:11.043Z,1.77
2022-09-23T21:42:37.625Z,1.67
2022-09-23T21:45:05.256Z,1.63
2022-09-23T21:47:32.399Z,1.77
2022-09-23T21:49:59.096Z,1.90
2022-09-23T21:52:25.708Z,1.60
2022-09-23T21:54:52.275Z,1.93
2022-09-23T21:57:18.897Z,1.80
2022-09-23T21:59:45.598Z,1.93
2022-09-23T22:02:12.145Z,2.20
2022-09-23T22:04:38.844Z,2.70
2022-09-23T22:07:05.501Z,4.37
2022-09-23T22:09:32.111Z,3.80
2022-09-23T22:12:09.979Z,4.43
2022-09-23T22:14:36.899Z,1.83
2022-09-23T22:17:06.328Z,2.00
2022-09-23T22:19:35.332Z,6.80
2022-09-23T22:22:07.695Z,5.97
2022-09-23T22:24:34.317Z,2.67
2022-09-23T22:27:00.956Z,2.83
2022-09-23T22:29:46.386Z,5.40
2022-09-23T22:32:31.874Z,7.93
2022-09-23T22:34:59.289Z,4.60
2022-09-23T22:37:28.598Z,3.70
2022-09-23T22:39:55.216Z,3.33
2022-09-23T22:42:22.597Z,2.60
2022-09-23T22:44:50.379Z,2.50
2022-09-23T22:47:20.536Z,2.90
2022-09-23T22:49:48.165Z,2.60
2022-09-23T22:52:21.078Z,2.13
2022-09-23T22:54:47.929Z,2.67
2022-09-23T22:57:15.356Z,3.07
2022-09-23T22:59:48.026Z,2.90
2022-09-23T23:02:17.912Z,3.67
2022-09-23T23:04:48.073Z,3.40
2022-09-23T23:07:19.806Z,4.30
2022-09-23T23:09:50.664Z,3.90
2022-09-23T23:12:20.228Z,3.90
2022-09-23T23:14:47.998Z,4.13
2022-09-23T23:17:14.636Z,3.80
2022-09-23T23:19:41.742Z,4.23
2022-09-23T23:22:08.525Z,4.13
2022-09-23T23:24:37.973Z,3.90
2022-09-23T23:27:04.740Z,3.97
2022-09-23T23:29:31.381Z,3.80
2022-09-23T23:31:57.952Z,4.63
2022-09-23T23:34:24.612Z,4.03
2022-09-23T23:36:56.918Z,3.80
2022-09-23T23:39:24.876Z,5.23
2022-09-23T23:41:55.675Z,3.83
2022-09-23T23:44:26.358Z,4.37
2022-09-23T23:46:54.889Z,4.27
2022-09-23T23:49:21.794Z,4.17
2022-09-23T23:51:48.715Z,3.80
2022-09-23T23:54:17.066Z,3.67
2022-09-23T23:56:43.810Z,4.50
2022-09-23T23:59:10.426Z,4.47
